メインページ
METAR-TAF:

METAR-TAF

空港 :

マデイラ空港

フンシャル, マデイラ諸島, ポルトガル

緯度: 32-41-52N, 経度: 016-46-28W, 海抜: 59m

現時点の気象観測

当レポートは36分前の07:00(UTC)に作成
の風 8kt
気温 21°C
湿度 64%
気圧 1017 hPa
視程10km以上
高度1600ftの雲は散在している

METAR: LPMA 190700Z 36008KT 9999 SCT016 21/14 Q1017

時間: 08:36 (07:36 UTC)

予報

当レポートは2時間36分前の05:00(UTC)に作成
予報は19日の 06時(UTC)から 20日の 06時(UTC)まで有効
の風 10kt
視程10km以上
高度1500ftの雲は散在している
高度3000ftの雲は散在している
19日の 06時(UTC)から 19日の 08時(UTC)まで一時的に
高度1500ftの千切れ雲あり
19日の 09時(UTC)から 19日の 12時(UTC)まで徐々に
高度1500ftの雲はほとんどない
確率 30% :
19日の 09時(UTC)から 19日の 18時(UTC)まで一時的に
南/南西の風 8kt
19日の 21時(UTC)から 19日の 23時(UTC)まで徐々に
変向風 5kt
19日の 23時(UTC)から 20日の 02時(UTC)まで徐々に
の風 8kt

TAF: LPMA 190500Z 1906/2006 01010KT 9999 SCT015 SCT030 TEMPO 1906/1908 BKN015 BECMG 1909/1912 FEW015 PROB30 TEMPO 1909/1918 20008KT BECMG 1921/1923 VRB05KT BECMG 1923/2002 19008KT

4,000以上の空港の気象観測と天気予報(METAR報とTAF報)

利用可能な観測所は地図上に黄色い丸と赤い丸で示す。

丸の上にカーソルを重ねると観測所名を参照できる。

次にクリックすると気象観測と天気予報を参照できる。

マップの切り替え:黒色「×」印の緑ボタンをクリックして拡大、「-」印の緑ボタンをクリックして縮小、緑色の三角印をクリックして隣りの地図に切り替え


METAR-TAF: